Aviation Digital Data Service (ADDS)

Output produced by METARs form (2316 UTC 18 October 2019)
found at http://www.aviationweather.gov/metar/data/
 
METAR text: GMMN 182300Z 02008KT 9999 BKN010 18/16 Q1018 NOSIG
Conditions at: GMMN (NOUASSEUR/CASABL, MA) observed 2300 UTC 18 October 2019
Temperature: 18.0°C (64°F)
Dewpoint: 16.0°C (61°F) [RH = 88%]
Pressure (altimeter): 30.06 inches Hg (1018.0 mb)
Winds: from the NNE (20 degrees) at 9 MPH (8 knots; 4.1 m/s)
Visibility: 6 or more miles (10+ km)
Ceiling: 1000 feet AGL
Clouds: broken clouds at 1000 feet AGL
Weather: no significant weather observed at this time

METAR text: GMMN 182230Z 03006KT 260V050 8000 BKN010 19/16 Q1018 NOSIG
Conditions at: GMMN (NOUASSEUR/CASABL, MA) observed 2230 UTC 18 October 2019
Temperature: 19.0°C (66°F)
Dewpoint: 16.0°C (61°F) [RH = 83%]
Pressure (altimeter): 30.06 inches Hg (1018.0 mb)
Winds: from the NNE (30 degrees) at 7 MPH (6 knots; 3.1 m/s)
Visibility: 5 miles ( 8 km)
Ceiling: 1000 feet AGL
Clouds: broken clouds at 1000 feet AGL
Weather: no significant weather observed at this time

METAR text: GMMN 182200Z 01006KT 350V060 8000 BKN010 19/16 Q1018 NOSIG
Conditions at: GMMN (NOUASSEUR/CASABL, MA) observed 2200 UTC 18 October 2019
Temperature: 19.0°C (66°F)
Dewpoint: 16.0°C (61°F) [RH = 83%]
Pressure (altimeter): 30.06 inches Hg (1018.0 mb)
Winds: from the N (10 degrees) at 7 MPH (6 knots; 3.1 m/s)
Visibility: 5 miles ( 8 km)
Ceiling: 1000 feet AGL
Clouds: broken clouds at 1000 feet AGL
Weather: no significant weather observed at this time

METAR text: GMMN 182130Z 36005KT 8000 BKN006 18/17 Q1018 NOSIG
Conditions at: GMMN (NOUASSEUR/CASABL, MA) observed 2130 UTC 18 October 2019
Temperature: 18.0°C (64°F)
Dewpoint: 17.0°C (63°F) [RH = 94%]
Pressure (altimeter): 30.06 inches Hg (1018.0 mb)
Winds: from the N (360 degrees) at 6 MPH (5 knots; 2.6 m/s)
Visibility: 5 miles ( 8 km)
Ceiling: 600 feet AGL
Clouds: broken clouds at 600 feet AGL
Weather: no significant weather observed at this time

METAR text: GMMN 182100Z 35005KT 8000 BKN006 18/17 Q1018 NOSIG
Conditions at: GMMN (NOUASSEUR/CASABL, MA) observed 2100 UTC 18 October 2019
Temperature: 18.0°C (64°F)
Dewpoint: 17.0°C (63°F) [RH = 94%]
Pressure (altimeter): 30.06 inches Hg (1018.0 mb)
Winds: from the N (350 degrees) at 6 MPH (5 knots; 2.6 m/s)
Visibility: 5 miles ( 8 km)
Ceiling: 600 feet AGL
Clouds: broken clouds at 600 feet AGL
Weather: no significant weather observed at this time

METAR text: GMMN 182030Z 36004KT 6000 BKN003 18/17 Q1018 BECMG 4000 BR BKN002
Conditions at: GMMN (NOUASSEUR/CASABL, MA) observed 2030 UTC 18 October 2019
Temperature: 18.0°C (64°F)
Dewpoint: 17.0°C (63°F) [RH = 94%]
Pressure (altimeter): 30.06 inches Hg (1018.0 mb)
Winds: from the N (360 degrees) at 5 MPH (4 knots; 2.1 m/s)
Visibility: 4 miles ( 6 km)
Ceiling: 300 feet AGL
Clouds: broken clouds at 300 feet AGL
Weather: no significant weather observed at this time

METAR text: GMMN 182000Z 35006KT CAVOK 18/16 Q1018 NOSIG
Conditions at: GMMN (NOUASSEUR/CASABL, MA) observed 2000 UTC 18 October 2019
Temperature: 18.0°C (64°F)
Dewpoint: 16.0°C (61°F) [RH = 88%]
Pressure (altimeter): 30.06 inches Hg (1018.0 mb)
Winds: from the N (350 degrees) at 7 MPH (6 knots; 3.1 m/s)
Visibility: 6 or more miles (10+ km)
Ceiling: ceiling and visibility are OK
Clouds: unknown
Weather: no significant weather observed at this time

METAR text: GMMN 181930Z 36005KT CAVOK 18/16 Q1018 NOSIG
Conditions at: GMMN (NOUASSEUR/CASABL, MA) observed 1930 UTC 18 October 2019
Temperature: 18.0°C (64°F)
Dewpoint: 16.0°C (61°F) [RH = 88%]
Pressure (altimeter): 30.06 inches Hg (1018.0 mb)
Winds: from the N (360 degrees) at 6 MPH (5 knots; 2.6 m/s)
Visibility: 6 or more miles (10+ km)
Ceiling: ceiling and visibility are OK
Clouds: unknown
Weather: no significant weather observed at this time

METAR text: GMMN 181900Z 02008KT CAVOK 19/18 Q1017 NOSIG
Conditions at: GMMN (NOUASSEUR/CASABL, MA) observed 1900 UTC 18 October 2019
Temperature: 19.0°C (66°F)
Dewpoint: 18.0°C (64°F) [RH = 94%]
Pressure (altimeter): 30.03 inches Hg (1017.0 mb)
Winds: from the NNE (20 degrees) at 9 MPH (8 knots; 4.1 m/s)
Visibility: 6 or more miles (10+ km)
Ceiling: ceiling and visibility are OK
Clouds: unknown
Weather: no significant weather observed at this time

METAR text: GMMN 181830Z 36008KT CAVOK 20/17 Q1017 NOSIG
Conditions at: GMMN (NOUASSEUR/CASABL, MA) observed 1830 UTC 18 October 2019
Temperature: 20.0°C (68°F)
Dewpoint: 17.0°C (63°F) [RH = 83%]
Pressure (altimeter): 30.03 inches Hg (1017.0 mb)
Winds: from the N (360 degrees) at 9 MPH (8 knots; 4.1 m/s)
Visibility: 6 or more miles (10+ km)
Ceiling: ceiling and visibility are OK
Clouds: unknown
Weather: no significant weather observed at this time

METAR text: GMMN 181800Z 02011KT CAVOK 21/17 Q1017 NOSIG
Conditions at: GMMN (NOUASSEUR/CASABL, MA) observed 1800 UTC 18 October 2019
Temperature: 21.0°C (70°F)
Dewpoint: 17.0°C (63°F) [RH = 78%]
Pressure (altimeter): 30.03 inches Hg (1017.0 mb)
Winds: from the NNE (20 degrees) at 13 MPH (11 knots; 5.7 m/s)
Visibility: 6 or more miles (10+ km)
Ceiling: ceiling and visibility are OK
Clouds: unknown
Weather: no significant weather observed at this time

METAR text: GMMN 181730Z 02012KT CAVOK 22/16 Q1017 NOSIG
Conditions at: GMMN (NOUASSEUR/CASABL, MA) observed 1730 UTC 18 October 2019
Temperature: 22.0°C (72°F)
Dewpoint: 16.0°C (61°F) [RH = 69%]
Pressure (altimeter): 30.03 inches Hg (1017.0 mb)
Winds: from the NNE (20 degrees) at 14 MPH (12 knots; 6.2 m/s)
Visibility: 6 or more miles (10+ km)
Ceiling: ceiling and visibility are OK
Clouds: unknown
Weather: no significant weather observed at this time

METAR text: GMMN 181700Z 02012KT CAVOK 22/15 Q1017 NOSIG
Conditions at: GMMN (NOUASSEUR/CASABL, MA) observed 1700 UTC 18 October 2019
Temperature: 22.0°C (72°F)
Dewpoint: 15.0°C (59°F) [RH = 65%]
Pressure (altimeter): 30.03 inches Hg (1017.0 mb)
Winds: from the NNE (20 degrees) at 14 MPH (12 knots; 6.2 m/s)
Visibility: 6 or more miles (10+ km)
Ceiling: ceiling and visibility are OK
Clouds: unknown
Weather: no significant weather observed at this time

METAR text: GMMN 181630Z 02013KT CAVOK 23/16 Q1017 NOSIG
Conditions at: GMMN (NOUASSEUR/CASABL, MA) observed 1630 UTC 18 October 2019
Temperature: 23.0°C (73°F)
Dewpoint: 16.0°C (61°F) [RH = 65%]
Pressure (altimeter): 30.03 inches Hg (1017.0 mb)
Winds: from the NNE (20 degrees) at 15 MPH (13 knots; 6.7 m/s)
Visibility: 6 or more miles (10+ km)
Ceiling: ceiling and visibility are OK
Clouds: unknown
Weather: no significant weather observed at this time

METAR text: GMMN 181600Z AUTO 02013KT R35R///// NCD 24/14 Q1017
Conditions at: GMMN (NOUASSEUR/CASABL, MA) observed 1600 UTC 18 October 2019
Temperature: 24.0°C (75°F)
Dewpoint: 14.0°C (57°F) [RH = 54%]
Pressure (altimeter): 30.03 inches Hg (1017.0 mb)
Winds: from the NNE (20 degrees) at 15 MPH (13 knots; 6.7 m/s)
Visibility: missing
Ceiling: at least 12,000 feet AGL
Clouds: sky clear below 12,000 feet AGL
Weather: no significant weather observed at this time

METAR text: GMMN 181500Z 02013KT CAVOK 24/11 Q1018 NOSIG
Conditions at: GMMN (NOUASSEUR/CASABL, MA) observed 1500 UTC 18 October 2019
Temperature: 24.0°C (75°F)
Dewpoint: 11.0°C (52°F) [RH = 44%]
Pressure (altimeter): 30.06 inches Hg (1018.0 mb)
Winds: from the NNE (20 degrees) at 15 MPH (13 knots; 6.7 m/s)
Visibility: 6 or more miles (10+ km)
Ceiling: ceiling and visibility are OK
Clouds: unknown
Weather: no significant weather observed at this time

METAR text: GMMN 181430Z 01014KT 350V050 CAVOK 25/13 Q1018 NOSIG
Conditions at: GMMN (NOUASSEUR/CASABL, MA) observed 1430 UTC 18 October 2019
Temperature: 25.0°C (77°F)
Dewpoint: 13.0°C (55°F) [RH = 47%]
Pressure (altimeter): 30.06 inches Hg (1018.0 mb)
Winds: from the N (10 degrees) at 16 MPH (14 knots; 7.2 m/s)
Visibility: 6 or more miles (10+ km)
Ceiling: ceiling and visibility are OK
Clouds: unknown
Weather: no significant weather observed at this time

METAR text: GMMN 181400Z 01011KT 330V040 CAVOK 25/14 Q1018 NOSIG
Conditions at: GMMN (NOUASSEUR/CASABL, MA) observed 1400 UTC 18 October 2019
Temperature: 25.0°C (77°F)
Dewpoint: 14.0°C (57°F) [RH = 50%]
Pressure (altimeter): 30.06 inches Hg (1018.0 mb)
Winds: from the N (10 degrees) at 13 MPH (11 knots; 5.7 m/s)
Visibility: 6 or more miles (10+ km)
Ceiling: ceiling and visibility are OK
Clouds: unknown
Weather: no significant weather observed at this time

METAR text: GMMN 181330Z 03009KT 350V060 CAVOK 25/13 Q1018 NOSIG
Conditions at: GMMN (NOUASSEUR/CASABL, MA) observed 1330 UTC 18 October 2019
Temperature: 25.0°C (77°F)
Dewpoint: 13.0°C (55°F) [RH = 47%]
Pressure (altimeter): 30.06 inches Hg (1018.0 mb)
Winds: from the NNE (30 degrees) at 10 MPH (9 knots; 4.6 m/s)
Visibility: 6 or more miles (10+ km)
Ceiling: ceiling and visibility are OK
Clouds: unknown
Weather: no significant weather observed at this time

METAR text: GMMN 181300Z VRB08KT CAVOK 25/13 Q1018 NOSIG
Conditions at: GMMN (NOUASSEUR/CASABL, MA) observed 1300 UTC 18 October 2019
Temperature: 25.0°C (77°F)
Dewpoint: 13.0°C (55°F) [RH = 47%]
Pressure (altimeter): 30.06 inches Hg (1018.0 mb)
Winds: variable direction winds at 9 MPH (8 knots; 4.1 m/s)
Visibility: 6 or more miles (10+ km)
Ceiling: ceiling and visibility are OK
Clouds: unknown
Weather: no significant weather observed at this time

METAR text: GMMN 181230Z 03008KT 350V130 CAVOK 24/12 Q1019 NOSIG
Conditions at: GMMN (NOUASSEUR/CASABL, MA) observed 1230 UTC 18 October 2019
Temperature: 24.0°C (75°F)
Dewpoint: 12.0°C (54°F) [RH = 47%]
Pressure (altimeter): 30.09 inches Hg (1019.0 mb)
Winds: from the NNE (30 degrees) at 9 MPH (8 knots; 4.1 m/s)
Visibility: 6 or more miles (10+ km)
Ceiling: ceiling and visibility are OK
Clouds: unknown
Weather: no significant weather observed at this time

METAR text: GMMN 181200Z 35008KT 320V030 CAVOK 24/10 Q1019 NOSIG
Conditions at: GMMN (NOUASSEUR/CASABL, MA) observed 1200 UTC 18 October 2019
Temperature: 24.0°C (75°F)
Dewpoint: 10.0°C (50°F) [RH = 41%]
Pressure (altimeter): 30.09 inches Hg (1019.0 mb)
Winds: from the N (350 degrees) at 9 MPH (8 knots; 4.1 m/s)
Visibility: 6 or more miles (10+ km)
Ceiling: ceiling and visibility are OK
Clouds: unknown
Weather: no significant weather observed at this time

METAR text: GMMN 181130Z 01008KT 330V030 CAVOK 23/10 Q1020 NOSIG
Conditions at: GMMN (NOUASSEUR/CASABL, MA) observed 1130 UTC 18 October 2019
Temperature: 23.0°C (73°F)
Dewpoint: 10.0°C (50°F) [RH = 44%]
Pressure (altimeter): 30.12 inches Hg (1020.0 mb)
Winds: from the N (10 degrees) at 9 MPH (8 knots; 4.1 m/s)
Visibility: 6 or more miles (10+ km)
Ceiling: ceiling and visibility are OK
Clouds: unknown
Weather: no significant weather observed at this time

METAR text: GMMN 181100Z 35009KT CAVOK 23/10 Q1020 NOSIG
Conditions at: GMMN (NOUASSEUR/CASABL, MA) observed 1100 UTC 18 October 2019
Temperature: 23.0°C (73°F)
Dewpoint: 10.0°C (50°F) [RH = 44%]
Pressure (altimeter): 30.12 inches Hg (1020.0 mb)
Winds: from the N (350 degrees) at 10 MPH (9 knots; 4.6 m/s)
Visibility: 6 or more miles (10+ km)
Ceiling: ceiling and visibility are OK
Clouds: unknown
Weather: no significant weather observed at this time

METAR text: GMMN 181030Z 01007KT CAVOK 22/11 Q1020 NOSIG
Conditions at: GMMN (NOUASSEUR/CASABL, MA) observed 1030 UTC 18 October 2019
Temperature: 22.0°C (72°F)
Dewpoint: 11.0°C (52°F) [RH = 50%]
Pressure (altimeter): 30.12 inches Hg (1020.0 mb)
Winds: from the N (10 degrees) at 8 MPH (7 knots; 3.6 m/s)
Visibility: 6 or more miles (10+ km)
Ceiling: ceiling and visibility are OK
Clouds: unknown
Weather: no significant weather observed at this time

METAR text: GMMN 181000Z 36009KT CAVOK 20/11 Q1020 NOSIG
Conditions at: GMMN (NOUASSEUR/CASABL, MA) observed 1000 UTC 18 October 2019
Temperature: 20.0°C (68°F)
Dewpoint: 11.0°C (52°F) [RH = 56%]
Pressure (altimeter): 30.12 inches Hg (1020.0 mb)
Winds: from the N (360 degrees) at 10 MPH (9 knots; 4.6 m/s)
Visibility: 6 or more miles (10+ km)
Ceiling: ceiling and visibility are OK
Clouds: unknown
Weather: no significant weather observed at this time

METAR text: GMMN 180930Z 02008KT 350V050 CAVOK 19/12 Q1020 NOSIG
Conditions at: GMMN (NOUASSEUR/CASABL, MA) observed 0930 UTC 18 October 2019
Temperature: 19.0°C (66°F)
Dewpoint: 12.0°C (54°F) [RH = 64%]
Pressure (altimeter): 30.12 inches Hg (1020.0 mb)
Winds: from the NNE (20 degrees) at 9 MPH (8 knots; 4.1 m/s)
Visibility: 6 or more miles (10+ km)
Ceiling: ceiling and visibility are OK
Clouds: unknown
Weather: no significant weather observed at this time

METAR text: GMMN 180900Z 04009KT CAVOK 18/15 Q1020 NOSIG
Conditions at: GMMN (NOUASSEUR/CASABL, MA) observed 0900 UTC 18 October 2019
Temperature: 18.0°C (64°F)
Dewpoint: 15.0°C (59°F) [RH = 83%]
Pressure (altimeter): 30.12 inches Hg (1020.0 mb)
Winds: from the NE (40 degrees) at 10 MPH (9 knots; 4.6 m/s)
Visibility: 6 or more miles (10+ km)
Ceiling: ceiling and visibility are OK
Clouds: unknown
Weather: no significant weather observed at this time

METAR text: GMMN 180830Z 04007KT 010V120 CAVOK 17/15 Q1020 NOSIG
Conditions at: GMMN (NOUASSEUR/CASABL, MA) observed 0830 UTC 18 October 2019
Temperature: 17.0°C (63°F)
Dewpoint: 15.0°C (59°F) [RH = 88%]
Pressure (altimeter): 30.12 inches Hg (1020.0 mb)
Winds: from the NE (40 degrees) at 8 MPH (7 knots; 3.6 m/s)
Visibility: 6 or more miles (10+ km)
Ceiling: ceiling and visibility are OK
Clouds: unknown
Weather: no significant weather observed at this time

METAR text: GMMN 180800Z 02010KT CAVOK 15/13 Q1020 NOSIG
Conditions at: GMMN (NOUASSEUR/CASABL, MA) observed 0800 UTC 18 October 2019
Temperature: 15.0°C (59°F)
Dewpoint: 13.0°C (55°F) [RH = 88%]
Pressure (altimeter): 30.12 inches Hg (1020.0 mb)
Winds: from the NNE (20 degrees) at 12 MPH (10 knots; 5.1 m/s)
Visibility: 6 or more miles (10+ km)
Ceiling: ceiling and visibility are OK
Clouds: unknown
Weather: no significant weather observed at this time

METAR text: GMMN 180730Z 00000KT CAVOK 13/13 Q1020 NOSIG
Conditions at: GMMN (NOUASSEUR/CASABL, MA) observed 0730 UTC 18 October 2019
Temperature: 13.0°C (55°F)
Dewpoint: 13.0°C (55°F) [RH = 100%]
Pressure (altimeter): 30.12 inches Hg (1020.0 mb)
Winds: calm
Visibility: 6 or more miles (10+ km)
Ceiling: ceiling and visibility are OK
Clouds: unknown
Weather: no significant weather observed at this time

METAR text: GMMN 180700Z 00000KT CAVOK 11/11 Q1019 NOSIG
Conditions at: GMMN (NOUASSEUR/CASABL, MA) observed 0700 UTC 18 October 2019
Temperature: 11.0°C (52°F)
Dewpoint: 11.0°C (52°F) [RH = 100%]
Pressure (altimeter): 30.09 inches Hg (1019.0 mb)
Winds: calm
Visibility: 6 or more miles (10+ km)
Ceiling: ceiling and visibility are OK
Clouds: unknown
Weather: no significant weather observed at this time

METAR text: GMMN 180630Z 02004KT CAVOK 11/11 Q1019 NOSIG
Conditions at: GMMN (NOUASSEUR/CASABL, MA) observed 0630 UTC 18 October 2019
Temperature: 11.0°C (52°F)
Dewpoint: 11.0°C (52°F) [RH = 100%]
Pressure (altimeter): 30.09 inches Hg (1019.0 mb)
Winds: from the NNE (20 degrees) at 5 MPH (4 knots; 2.1 m/s)
Visibility: 6 or more miles (10+ km)
Ceiling: ceiling and visibility are OK
Clouds: unknown
Weather: no significant weather observed at this time

METAR text: GMMN 180600Z 00000KT CAVOK 11/11 Q1019 NOSIG
Conditions at: GMMN (NOUASSEUR/CASABL, MA) observed 0600 UTC 18 October 2019
Temperature: 11.0°C (52°F)
Dewpoint: 11.0°C (52°F) [RH = 100%]
Pressure (altimeter): 30.09 inches Hg (1019.0 mb)
Winds: calm
Visibility: 6 or more miles (10+ km)
Ceiling: ceiling and visibility are OK
Clouds: unknown
Weather: no significant weather observed at this time

METAR text: GMMN 180530Z 00000KT CAVOK 13/13 Q1019 NOSIG
Conditions at: GMMN (NOUASSEUR/CASABL, MA) observed 0530 UTC 18 October 2019
Temperature: 13.0°C (55°F)
Dewpoint: 13.0°C (55°F) [RH = 100%]
Pressure (altimeter): 30.09 inches Hg (1019.0 mb)
Winds: calm
Visibility: 6 or more miles (10+ km)
Ceiling: ceiling and visibility are OK
Clouds: unknown
Weather: no significant weather observed at this time

METAR text: GMMN 180500Z 00000KT CAVOK 12/12 Q1019 NOSIG
Conditions at: GMMN (NOUASSEUR/CASABL, MA) observed 0500 UTC 18 October 2019
Temperature: 12.0°C (54°F)
Dewpoint: 12.0°C (54°F) [RH = 100%]
Pressure (altimeter): 30.09 inches Hg (1019.0 mb)
Winds: calm
Visibility: 6 or more miles (10+ km)
Ceiling: ceiling and visibility are OK
Clouds: unknown
Weather: no significant weather observed at this time

METAR text: GMMN 180430Z 00000KT CAVOK 12/12 Q1019 NOSIG
Conditions at: GMMN (NOUASSEUR/CASABL, MA) observed 0430 UTC 18 October 2019
Temperature: 12.0°C (54°F)
Dewpoint: 12.0°C (54°F) [RH = 100%]
Pressure (altimeter): 30.09 inches Hg (1019.0 mb)
Winds: calm
Visibility: 6 or more miles (10+ km)
Ceiling: ceiling and visibility are OK
Clouds: unknown
Weather: no significant weather observed at this time

METAR text: GMMN 180400Z 00000KT CAVOK 13/13 Q1019 NOSIG
Conditions at: GMMN (NOUASSEUR/CASABL, MA) observed 0400 UTC 18 October 2019
Temperature: 13.0°C (55°F)
Dewpoint: 13.0°C (55°F) [RH = 100%]
Pressure (altimeter): 30.09 inches Hg (1019.0 mb)
Winds: calm
Visibility: 6 or more miles (10+ km)
Ceiling: ceiling and visibility are OK
Clouds: unknown
Weather: no significant weather observed at this time

METAR text: GMMN 180330Z 00000KT CAVOK 13/13 Q1019 NOSIG
Conditions at: GMMN (NOUASSEUR/CASABL, MA) observed 0330 UTC 18 October 2019
Temperature: 13.0°C (55°F)
Dewpoint: 13.0°C (55°F) [RH = 100%]
Pressure (altimeter): 30.09 inches Hg (1019.0 mb)
Winds: calm
Visibility: 6 or more miles (10+ km)
Ceiling: ceiling and visibility are OK
Clouds: unknown
Weather: no significant weather observed at this time

METAR text: GMMN 180300Z 00000KT CAVOK 14/14 Q1020 NOSIG
Conditions at: GMMN (NOUASSEUR/CASABL, MA) observed 0300 UTC 18 October 2019
Temperature: 14.0°C (57°F)
Dewpoint: 14.0°C (57°F) [RH = 100%]
Pressure (altimeter): 30.12 inches Hg (1020.0 mb)
Winds: calm
Visibility: 6 or more miles (10+ km)
Ceiling: ceiling and visibility are OK
Clouds: unknown
Weather: no significant weather observed at this time

METAR text: GMMN 180230Z 00000KT CAVOK 14/14 Q1020 NOSIG
Conditions at: GMMN (NOUASSEUR/CASABL, MA) observed 0230 UTC 18 October 2019
Temperature: 14.0°C (57°F)
Dewpoint: 14.0°C (57°F) [RH = 100%]
Pressure (altimeter): 30.12 inches Hg (1020.0 mb)
Winds: calm
Visibility: 6 or more miles (10+ km)
Ceiling: ceiling and visibility are OK
Clouds: unknown
Weather: no significant weather observed at this time

METAR text: GMMN 180200Z 00000KT CAVOK 15/14 Q1020 NOSIG
Conditions at: GMMN (NOUASSEUR/CASABL, MA) observed 0200 UTC 18 October 2019
Temperature: 15.0°C (59°F)
Dewpoint: 14.0°C (57°F) [RH = 94%]
Pressure (altimeter): 30.12 inches Hg (1020.0 mb)
Winds: calm
Visibility: 6 or more miles (10+ km)
Ceiling: ceiling and visibility are OK
Clouds: unknown
Weather: no significant weather observed at this time

METAR text: GMMN 180130Z /////KT CAVOK 14/14 Q1020 NOSIG
Conditions at: GMMN (NOUASSEUR/CASABL, MA) observed 0130 UTC 18 October 2019
Temperature: 14.0°C (57°F)
Dewpoint: 14.0°C (57°F) [RH = 100%]
Pressure (altimeter): 30.12 inches Hg (1020.0 mb)
Winds: missing
Visibility: 6 or more miles (10+ km)
Ceiling: ceiling and visibility are OK
Clouds: unknown
Weather: no significant weather observed at this time

METAR text: GMMN 180100Z 00000KT CAVOK 14/14 Q1020 NOSIG
Conditions at: GMMN (NOUASSEUR/CASABL, MA) observed 0100 UTC 18 October 2019
Temperature: 14.0°C (57°F)
Dewpoint: 14.0°C (57°F) [RH = 100%]
Pressure (altimeter): 30.12 inches Hg (1020.0 mb)
Winds: calm
Visibility: 6 or more miles (10+ km)
Ceiling: ceiling and visibility are OK
Clouds: unknown
Weather: no significant weather observed at this time

METAR text: GMMN 180030Z 00000KT CAVOK 15/14 Q1021 NOSIG
Conditions at: GMMN (NOUASSEUR/CASABL, MA) observed 0030 UTC 18 October 2019
Temperature: 15.0°C (59°F)
Dewpoint: 14.0°C (57°F) [RH = 94%]
Pressure (altimeter): 30.15 inches Hg (1021.0 mb)
Winds: calm
Visibility: 6 or more miles (10+ km)
Ceiling: ceiling and visibility are OK
Clouds: unknown
Weather: no significant weather observed at this time

METAR text: GMMN 180000Z 00000KT CAVOK 15/14 Q1021 NOSIG
Conditions at: GMMN (NOUASSEUR/CASABL, MA) observed 0000 UTC 18 October 2019
Temperature: 15.0°C (59°F)
Dewpoint: 14.0°C (57°F) [RH = 94%]
Pressure (altimeter): 30.15 inches Hg (1021.0 mb)
Winds: calm
Visibility: 6 or more miles (10+ km)
Ceiling: ceiling and visibility are OK
Clouds: unknown
Weather: no significant weather observed at this time

METAR text: GMMN 172330Z 00000KT CAVOK 15/15 Q1021 NOSIG
Conditions at: GMMN (NOUASSEUR/CASABL, MA) observed 2330 UTC 17 October 2019
Temperature: 15.0°C (59°F)
Dewpoint: 15.0°C (59°F) [RH = 100%]
Pressure (altimeter): 30.15 inches Hg (1021.0 mb)
Winds: calm
Visibility: 6 or more miles (10+ km)
Ceiling: ceiling and visibility are OK
Clouds: unknown
Weather: no significant weather observed at this time

METAR text: GMMN 172300Z 07001KT CAVOK 16/15 Q1021 NOSIG
Conditions at: GMMN (NOUASSEUR/CASABL, MA) observed 2300 UTC 17 October 2019
Temperature: 16.0°C (61°F)
Dewpoint: 15.0°C (59°F) [RH = 94%]
Pressure (altimeter): 30.15 inches Hg (1021.0 mb)
Winds: from the ENE (70 degrees) at 1 MPH (1 knots; 0.5 m/s)
Visibility: 6 or more miles (10+ km)
Ceiling: ceiling and visibility are OK
Clouds: unknown
Weather: no significant weather observed at this time

METAR text: GMMN 172230Z 02006KT CAVOK 17/16 Q1021 NOSIG
Conditions at: GMMN (NOUASSEUR/CASABL, MA) observed 2230 UTC 17 October 2019
Temperature: 17.0°C (63°F)
Dewpoint: 16.0°C (61°F) [RH = 94%]
Pressure (altimeter): 30.15 inches Hg (1021.0 mb)
Winds: from the NNE (20 degrees) at 7 MPH (6 knots; 3.1 m/s)
Visibility: 6 or more miles (10+ km)
Ceiling: ceiling and visibility are OK
Clouds: unknown
Weather: no significant weather observed at this time

METAR text: GMMN 172200Z 02005KT CAVOK 17/16 Q1021 NOSIG
Conditions at: GMMN (NOUASSEUR/CASABL, MA) observed 2200 UTC 17 October 2019
Temperature: 17.0°C (63°F)
Dewpoint: 16.0°C (61°F) [RH = 94%]
Pressure (altimeter): 30.15 inches Hg (1021.0 mb)
Winds: from the NNE (20 degrees) at 6 MPH (5 knots; 2.6 m/s)
Visibility: 6 or more miles (10+ km)
Ceiling: ceiling and visibility are OK
Clouds: unknown
Weather: no significant weather observed at this time

METAR text: GMMN 172130Z 02005KT CAVOK 17/15 Q1021 NOSIG
Conditions at: GMMN (NOUASSEUR/CASABL, MA) observed 2130 UTC 17 October 2019
Temperature: 17.0°C (63°F)
Dewpoint: 15.0°C (59°F) [RH = 88%]
Pressure (altimeter): 30.15 inches Hg (1021.0 mb)
Winds: from the NNE (20 degrees) at 6 MPH (5 knots; 2.6 m/s)
Visibility: 6 or more miles (10+ km)
Ceiling: ceiling and visibility are OK
Clouds: unknown
Weather: no significant weather observed at this time

METAR text: GMMN 172100Z 02005KT CAVOK 17/15 Q1021 NOSIG
Conditions at: GMMN (NOUASSEUR/CASABL, MA) observed 2100 UTC 17 October 2019
Temperature: 17.0°C (63°F)
Dewpoint: 15.0°C (59°F) [RH = 88%]
Pressure (altimeter): 30.15 inches Hg (1021.0 mb)
Winds: from the NNE (20 degrees) at 6 MPH (5 knots; 2.6 m/s)
Visibility: 6 or more miles (10+ km)
Ceiling: ceiling and visibility are OK
Clouds: unknown
Weather: no significant weather observed at this time

METAR text: GMMN 172030Z 02004KT CAVOK 17/15 Q1021 NOSIG
Conditions at: GMMN (NOUASSEUR/CASABL, MA) observed 2030 UTC 17 October 2019
Temperature: 17.0°C (63°F)
Dewpoint: 15.0°C (59°F) [RH = 88%]
Pressure (altimeter): 30.15 inches Hg (1021.0 mb)
Winds: from the NNE (20 degrees) at 5 MPH (4 knots; 2.1 m/s)
Visibility: 6 or more miles (10+ km)
Ceiling: ceiling and visibility are OK
Clouds: unknown
Weather: no significant weather observed at this time

METAR text: GMMN 172000Z 02004KT CAVOK 17/15 Q1020 NOSIG
Conditions at: GMMN (NOUASSEUR/CASABL, MA) observed 2000 UTC 17 October 2019
Temperature: 17.0°C (63°F)
Dewpoint: 15.0°C (59°F) [RH = 88%]
Pressure (altimeter): 30.12 inches Hg (1020.0 mb)
Winds: from the NNE (20 degrees) at 5 MPH (4 knots; 2.1 m/s)
Visibility: 6 or more miles (10+ km)
Ceiling: ceiling and visibility are OK
Clouds: unknown
Weather: no significant weather observed at this time

METAR text: GMMN 171930Z 02004KT CAVOK 18/15 Q1020 NOSIG
Conditions at: GMMN (NOUASSEUR/CASABL, MA) observed 1930 UTC 17 October 2019
Temperature: 18.0°C (64°F)
Dewpoint: 15.0°C (59°F) [RH = 83%]
Pressure (altimeter): 30.12 inches Hg (1020.0 mb)
Winds: from the NNE (20 degrees) at 5 MPH (4 knots; 2.1 m/s)
Visibility: 6 or more miles (10+ km)
Ceiling: ceiling and visibility are OK
Clouds: unknown
Weather: no significant weather observed at this time

METAR text: GMMN 171900Z 00000KT CAVOK 19/15 Q1020 NOSIG
Conditions at: GMMN (NOUASSEUR/CASABL, MA) observed 1900 UTC 17 October 2019
Temperature: 19.0°C (66°F)
Dewpoint: 15.0°C (59°F) [RH = 78%]
Pressure (altimeter): 30.12 inches Hg (1020.0 mb)
Winds: calm
Visibility: 6 or more miles (10+ km)
Ceiling: ceiling and visibility are OK
Clouds: unknown
Weather: no significant weather observed at this time

METAR text: GMMN 171830Z 02008KT CAVOK 19/14 Q1020 NOSIG
Conditions at: GMMN (NOUASSEUR/CASABL, MA) observed 1830 UTC 17 October 2019
Temperature: 19.0°C (66°F)
Dewpoint: 14.0°C (57°F) [RH = 73%]
Pressure (altimeter): 30.12 inches Hg (1020.0 mb)
Winds: from the NNE (20 degrees) at 9 MPH (8 knots; 4.1 m/s)
Visibility: 6 or more miles (10+ km)
Ceiling: ceiling and visibility are OK
Clouds: unknown
Weather: no significant weather observed at this time

METAR text: GMMN 171800Z 35008KT CAVOK 19/11 Q1020 NOSIG
Conditions at: GMMN (NOUASSEUR/CASABL, MA) observed 1800 UTC 17 October 2019
Temperature: 19.0°C (66°F)
Dewpoint: 11.0°C (52°F) [RH = 60%]
Pressure (altimeter): 30.12 inches Hg (1020.0 mb)
Winds: from the N (350 degrees) at 9 MPH (8 knots; 4.1 m/s)
Visibility: 6 or more miles (10+ km)
Ceiling: ceiling and visibility are OK
Clouds: unknown
Weather: no significant weather observed at this time

METAR text: GMMN 171730Z 01012KT CAVOK 20/14 Q1019 NOSIG
Conditions at: GMMN (NOUASSEUR/CASABL, MA) observed 1730 UTC 17 October 2019
Temperature: 20.0°C (68°F)
Dewpoint: 14.0°C (57°F) [RH = 68%]
Pressure (altimeter): 30.09 inches Hg (1019.0 mb)
Winds: from the N (10 degrees) at 14 MPH (12 knots; 6.2 m/s)
Visibility: 6 or more miles (10+ km)
Ceiling: ceiling and visibility are OK
Clouds: unknown
Weather: no significant weather observed at this time

METAR text: GMMN 171700Z 02010KT CAVOK 21/13 Q1019 NOSIG
Conditions at: GMMN (NOUASSEUR/CASABL, MA) observed 1700 UTC 17 October 2019
Temperature: 21.0°C (70°F)
Dewpoint: 13.0°C (55°F) [RH = 60%]
Pressure (altimeter): 30.09 inches Hg (1019.0 mb)
Winds: from the NNE (20 degrees) at 12 MPH (10 knots; 5.1 m/s)
Visibility: 6 or more miles (10+ km)
Ceiling: ceiling and visibility are OK
Clouds: unknown
Weather: no significant weather observed at this time

METAR text: GMMN 171630Z 02010KT CAVOK 22/13 Q1019 NOSIG
Conditions at: GMMN (NOUASSEUR/CASABL, MA) observed 1630 UTC 17 October 2019
Temperature: 22.0°C (72°F)
Dewpoint: 13.0°C (55°F) [RH = 57%]
Pressure (altimeter): 30.09 inches Hg (1019.0 mb)
Winds: from the NNE (20 degrees) at 12 MPH (10 knots; 5.1 m/s)
Visibility: 6 or more miles (10+ km)
Ceiling: ceiling and visibility are OK
Clouds: unknown
Weather: no significant weather observed at this time

METAR text: GMMN 171600Z 02010KT CAVOK 22/13 Q1019 NOSIG
Conditions at: GMMN (NOUASSEUR/CASABL, MA) observed 1600 UTC 17 October 2019
Temperature: 22.0°C (72°F)
Dewpoint: 13.0°C (55°F) [RH = 57%]
Pressure (altimeter): 30.09 inches Hg (1019.0 mb)
Winds: from the NNE (20 degrees) at 12 MPH (10 knots; 5.1 m/s)
Visibility: 6 or more miles (10+ km)
Ceiling: ceiling and visibility are OK
Clouds: unknown
Weather: no significant weather observed at this time

METAR text: GMMN 171500Z /////KT CAVOK 23/13 Q1019 NOSIG
Conditions at: GMMN (NOUASSEUR/CASABL, MA) observed 1500 UTC 17 October 2019
Temperature: 23.0°C (73°F)
Dewpoint: 13.0°C (55°F) [RH = 53%]
Pressure (altimeter): 30.09 inches Hg (1019.0 mb)
Winds: missing
Visibility: 6 or more miles (10+ km)
Ceiling: ceiling and visibility are OK
Clouds: unknown
Weather: no significant weather observed at this time

METAR text: GMMN 171430Z 03011KT 360V100 CAVOK 23/13 Q1020 NOSIG
Conditions at: GMMN (NOUASSEUR/CASABL, MA) observed 1430 UTC 17 October 2019
Temperature: 23.0°C (73°F)
Dewpoint: 13.0°C (55°F) [RH = 53%]
Pressure (altimeter): 30.12 inches Hg (1020.0 mb)
Winds: from the NNE (30 degrees) at 13 MPH (11 knots; 5.7 m/s)
Visibility: 6 or more miles (10+ km)
Ceiling: ceiling and visibility are OK
Clouds: unknown
Weather: no significant weather observed at this time

METAR text: GMMN 171400Z 02010KT 340V060 CAVOK 23/14 Q1020 NOSIG
Conditions at: GMMN (NOUASSEUR/CASABL, MA) observed 1400 UTC 17 October 2019
Temperature: 23.0°C (73°F)
Dewpoint: 14.0°C (57°F) [RH = 57%]
Pressure (altimeter): 30.12 inches Hg (1020.0 mb)
Winds: from the NNE (20 degrees) at 12 MPH (10 knots; 5.1 m/s)
Visibility: 6 or more miles (10+ km)
Ceiling: ceiling and visibility are OK
Clouds: unknown
Weather: no significant weather observed at this time

METAR text: GMMN 171330Z 02011KT 340V070 CAVOK 23/14 Q1020 NOSIG
Conditions at: GMMN (NOUASSEUR/CASABL, MA) observed 1330 UTC 17 October 2019
Temperature: 23.0°C (73°F)
Dewpoint: 14.0°C (57°F) [RH = 57%]
Pressure (altimeter): 30.12 inches Hg (1020.0 mb)
Winds: from the NNE (20 degrees) at 13 MPH (11 knots; 5.7 m/s)
Visibility: 6 or more miles (10+ km)
Ceiling: ceiling and visibility are OK
Clouds: unknown
Weather: no significant weather observed at this time

METAR text: GMMN 171300Z 02011KT 350V060 CAVOK 23/14 Q1020 NOSIG
Conditions at: GMMN (NOUASSEUR/CASABL, MA) observed 1300 UTC 17 October 2019
Temperature: 23.0°C (73°F)
Dewpoint: 14.0°C (57°F) [RH = 57%]
Pressure (altimeter): 30.12 inches Hg (1020.0 mb)
Winds: from the NNE (20 degrees) at 13 MPH (11 knots; 5.7 m/s)
Visibility: 6 or more miles (10+ km)
Ceiling: ceiling and visibility are OK
Clouds: unknown
Weather: no significant weather observed at this time

METAR text: GMMN 171230Z 36010KT CAVOK 23/13 Q1021 NOSIG
Conditions at: GMMN (NOUASSEUR/CASABL, MA) observed 1230 UTC 17 October 2019
Temperature: 23.0°C (73°F)
Dewpoint: 13.0°C (55°F) [RH = 53%]
Pressure (altimeter): 30.15 inches Hg (1021.0 mb)
Winds: from the N (360 degrees) at 12 MPH (10 knots; 5.1 m/s)
Visibility: 6 or more miles (10+ km)
Ceiling: ceiling and visibility are OK
Clouds: unknown
Weather: no significant weather observed at this time

METAR text: GMMN 171200Z 06008KT 030V100 CAVOK 22/12 Q1021 NOSIG
Conditions at: GMMN (NOUASSEUR/CASABL, MA) observed 1200 UTC 17 October 2019
Temperature: 22.0°C (72°F)
Dewpoint: 12.0°C (54°F) [RH = 53%]
Pressure (altimeter): 30.15 inches Hg (1021.0 mb)
Winds: from the ENE (60 degrees) at 9 MPH (8 knots; 4.1 m/s)
Visibility: 6 or more miles (10+ km)
Ceiling: ceiling and visibility are OK
Clouds: unknown
Weather: no significant weather observed at this time

METAR text: GMMN 171130Z 04007KT 340V090 CAVOK 22/13 Q1021 NOSIG
Conditions at: GMMN (NOUASSEUR/CASABL, MA) observed 1130 UTC 17 October 2019
Temperature: 22.0°C (72°F)
Dewpoint: 13.0°C (55°F) [RH = 57%]
Pressure (altimeter): 30.15 inches Hg (1021.0 mb)
Winds: from the NE (40 degrees) at 8 MPH (7 knots; 3.6 m/s)
Visibility: 6 or more miles (10+ km)
Ceiling: ceiling and visibility are OK
Clouds: unknown
Weather: no significant weather observed at this time

Forecast for: GMMN (NOUASSEUR/CASABL, MA)
Text: TAF GMMN 182300Z 1900/2006 06005KT 8000 BKN012
Forecast period: 0000 to 0200 UTC 19 October 2019
Forecast type: FROM: standard forecast or significant change
Winds: from the ENE (60 degrees) at 6 MPH (5 knots; 2.6 m/s)
Visibility: 5 miles (8 km)
Ceiling: 1200 feet AGL
Clouds: broken clouds at 1200 feet AGL
Weather: no significant weather forecast for this period
Text: BECMG 1902/1906 4000 BR BKN006
Forecast period: 0200 to 0900 UTC 19 October 2019
Forecast type: BECOMING: Conditions expected to become as follows by 0600 UTC 19 October 2019
Winds: from the ENE (60 degrees) at 6 MPH (5 knots; 2.6 m/s)
Visibility: 2.49 miles (4.01 km)
Ceiling: 600 feet AGL
Clouds: broken clouds at 600 feet AGL
Weather: BR  (mist)
Text: PROB30 1906/1909 800 FG BKN001
Forecast period: 0600 to 0900 UTC 19 October 2019
Forecast type: PROBABLE: 30 percent likelihood of the following during this time
Visibility: missing
Ceiling: 100 feet AGL
Clouds: broken clouds at 100 feet AGL
Weather: FG  (fog)
Text: BECMG 1909/1913 34014KT 9999 SCT016
Forecast period: 0900 to 2000 UTC 19 October 2019
Forecast type: BECOMING: Conditions expected to become as follows by 1300 UTC 19 October 2019
Winds: from the NNW (340 degrees) at 16 MPH (14 knots; 7.2 m/s)
Visibility: 6 or more miles 10+ km)
Ceiling: at least 12,000 feet AGL
Clouds: scattered clouds at 1600 feet AGL
Weather: BR  (mist)
Text: BECMG 1920/1924 18006KT
Forecast period: 2000 UTC 19 October 2019 to 0600 UTC 20 October 2019
Forecast type: BECOMING: Conditions expected to become as follows by 0000 UTC 20 October 2019
Winds: from the S (180 degrees) at 7 MPH (6 knots; 3.1 m/s)
Visibility: 6 or more miles 10+ km)
Ceiling: at least 12,000 feet AGL
Clouds: scattered clouds at 1600 feet AGL
Weather: BR  (mist)